Ontario Airport

About
Name: Ontario Airport
Identifier:  ONO/KONO
Local Time:  25. Aug 03:31 MDT
Location
Flights per Day
0 flights
Distance: 571km (354mi)
Punctuality
50% (0 flights per day delayed)
Delay Average: 17 minutes
Current Weather
 24 C (Humidity: 27%)
  17kt (31km/h / 19mph) from 330°
23 knots Gusts

  16km (10 mi.)
 
 METAR KONO 250853Z AUTO 33017G23KT 10SM CLR 24/04 A2992 RMK AO2 SLP110 T02390044 51014

Current Flights

Departures
Number Departure To Airline
Arrivals
Number Arrival From Airline

Current Delays

Departures
N/A
Arrivals
N/A

Destinations

Top Destinations
Airport Flights
per week
Seats
per week
  Salinas (SNS) 0 - 0 0
  Sacramento (MCC) 0 - 0 0
  Pendleton (PDT) 0 - 0 0
  Rexburg (RXE) 0 - 0 0

Airlines & Planes

Top Airlines
Airline Flights
per Day
Seats
per Day
Nordwind Airlines 0 -
  Novair 0 -
Top Plane Types
Model Flights Seats
Hawker Beechcraft 400XP 0.0/day - 0
Mooney M20K 0.0/day - 0